Time;durP1;ratioP1;P1;durP2;ratioP2;P2;SDS_P1;SDS_P2;PMS_P1;PMS_P2;Temp;Humidity;BMP_temperature;BMP_pressure;BME280_temperature;BME280_humidity;BME280_pressure;Samples;Min_cycle;Max_cycle;Signal;HPM_P1;HPM_P2
2024/02/06 00:01:27;;;;;;;9.13;5.60;;;;;;;;;;5134107;27;20412;-83
2024/02/06 00:03:54;;;;;;;13.77;6.40;;;;;;;;;;5134029;27;20431;-82
2024/02/06 00:06:20;;;;;;;7.43;5.33;;;;;;;;;;5134189;27;20443;-81
2024/02/06 00:08:46;;;;;;;8.47;6.00;;;;;;;;;;5134032;27;20492;-82
2024/02/06 00:11:13;;;;;;;9.03;6.90;;;;;;;;;;5134080;27;20413;-84
2024/02/06 00:13:38;;;;;;;6.00;5.30;;;;;;;;;;5133677;27;20400;-82
2024/02/06 00:16:11;;;;;;;9.60;6.07;;;;;;;;;;5133793;27;20515;-83
2024/02/06 00:18:37;;;;;;;7.77;4.90;;;;;;;;;;5134030;27;20430;-82
2024/02/06 00:21:06;;;;;;;6.50;5.20;;;;;;;;;;5115451;27;20516;-83
2024/02/06 00:23:32;;;;;;;7.67;4.90;;;;;;;;;;5133536;27;20425;-82
2024/02/06 00:25:58;;;;;;;7.83;6.00;;;;;;;;;;5133404;27;20504;-83
2024/02/06 00:28:25;;;;;;;7.10;5.50;;;;;;;;;;5114889;28;20457;-83
2024/02/06 00:30:50;;;;;;;9.53;5.10;;;;;;;;;;5133677;27;20462;-83
2024/02/06 00:33:16;;;;;;;8.47;5.10;;;;;;;;;;5133903;27;20462;-84
2024/02/06 00:35:42;;;;;;;7.70;4.97;;;;;;;;;;5133748;27;20409;-84
2024/02/06 00:38:08;;;;;;;6.00;3.80;;;;;;;;;;5133627;27;20424;-82
2024/02/06 00:40:34;;;;;;;7.67;4.80;;;;;;;;;;5133286;27;20427;-81
2024/02/06 00:43:00;;;;;;;6.33;4.40;;;;;;;;;;5133265;27;20405;-83
2024/02/06 00:45:27;;;;;;;7.27;4.73;;;;;;;;;;5114462;28;20823;-82
2024/02/06 00:47:53;;;;;;;8.00;5.23;;;;;;;;;;5133632;27;20416;-83
2024/02/06 00:50:22;;;;;;;6.97;4.60;;;;;;;;;;5133490;28;20473;-82
2024/02/06 00:52:48;;;;;;;7.90;4.47;;;;;;;;;;5133350;28;20417;-84
2024/02/06 00:55:16;;;;;;;8.17;5.47;;;;;;;;;;5133532;28;20790;-82
2024/02/06 00:57:42;;;;;;;8.83;3.77;;;;;;;;;;5133490;28;20855;-83
2024/02/06 01:00:09;;;;;;;8.77;5.30;;;;;;;;;;5133396;28;20480;-83
2024/02/06 01:02:35;;;;;;;8.90;4.57;;;;;;;;;;5133601;28;20392;-83
2024/02/06 01:05:01;;;;;;;9.87;5.00;;;;;;;;;;5133501;28;20407;-83
2024/02/06 01:07:28;;;;;;;13.17;4.70;;;;;;;;;;5114996;28;20409;-83
2024/02/06 01:09:55;;;;;;;11.50;4.70;;;;;;;;;;5133228;28;20839;-84
2024/02/06 01:12:21;;;;;;;9.70;5.00;;;;;;;;;;5133341;28;20915;-82
2024/02/06 01:14:46;;;;;;;9.57;4.63;;;;;;;;;;5133163;28;20413;-82
2024/02/06 01:17:12;;;;;;;7.30;5.10;;;;;;;;;;5133108;28;20409;-83
2024/02/06 01:19:38;;;;;;;10.90;4.53;;;;;;;;;;5133411;28;20400;-83
2024/02/06 01:22:05;;;;;;;8.57;4.07;;;;;;;;;;5133162;28;20409;-82
2024/02/06 01:24:31;;;;;;;8.20;4.17;;;;;;;;;;5133132;28;20465;-82
2024/02/06 01:26:59;;;;;;;9.23;4.10;;;;;;;;;;5133305;28;20402;-81
2024/02/06 01:29:25;;;;;;;11.43;5.93;;;;;;;;;;5132666;28;20476;-84
2024/02/06 01:31:57;;;;;;;10.07;4.80;;;;;;;;;;5114875;28;20412;-82
2024/02/06 01:34:23;;;;;;;9.17;4.40;;;;;;;;;;5133099;28;20521;-82
2024/02/06 01:36:49;;;;;;;11.37;5.30;;;;;;;;;;5114651;28;20407;-83
2024/02/06 01:39:15;;;;;;;10.27;5.47;;;;;;;;;;5133244;28;20456;-83
2024/02/06 01:41:41;;;;;;;8.43;4.50;;;;;;;;;;5114802;28;20278;-83
2024/02/06 01:44:07;;;;;;;12.10;4.50;;;;;;;;;;5132642;28;20919;-82
2024/02/06 01:46:33;;;;;;;10.40;5.30;;;;;;;;;;5133186;28;20491;-82
2024/02/06 01:49:00;;;;;;;14.30;5.93;;;;;;;;;;5132910;28;20808;-82
2024/02/06 01:51:28;;;;;;;10.10;4.63;;;;;;;;;;5132926;28;20971;-82
2024/02/06 01:53:55;;;;;;;11.00;4.90;;;;;;;;;;5133338;28;20405;-82
2024/02/06 01:56:21;;;;;;;11.67;5.27;;;;;;;;;;5133433;27;20823;-82
2024/02/06 01:59:07;;;;;;;7.40;4.70;;;;;;;;;;5136702;27;20406;-83
2024/02/06 02:01:33;;;;;;;9.80;4.60;;;;;;;;;;5136833;27;20421;-83
2024/02/06 02:03:59;;;;;;;12.97;5.30;;;;;;;;;;5137016;27;20901;-83
2024/02/06 02:06:26;;;;;;;8.70;4.77;;;;;;;;;;5118489;27;20405;-82
2024/02/06 02:08:52;;;;;;;14.17;4.87;;;;;;;;;;5136747;27;20509;-83
2024/02/06 02:11:21;;;;;;;10.27;4.80;;;;;;;;;;5136826;27;20409;-83
2024/02/06 02:13:50;;;;;;;9.20;5.67;;;;;;;;;;5136456;27;20507;-83
2024/02/06 02:16:19;;;;;;;10.97;5.93;;;;;;;;;;5136752;27;20446;-82
2024/02/06 02:18:44;;;;;;;8.03;5.10;;;;;;;;;;5136566;27;20783;-81
2024/02/06 02:21:11;;;;;;;9.87;6.20;;;;;;;;;;5136617;27;20414;-82
2024/02/06 02:23:38;;;;;;;13.00;5.67;;;;;;;;;;5136533;27;20909;-82
2024/02/06 02:26:05;;;;;;;13.17;5.50;;;;;;;;;;5136448;27;20416;-82
2024/02/06 02:28:31;;;;;;;7.57;5.50;;;;;;;;;;5136092;27;20463;-81
2024/02/06 02:30:57;;;;;;;10.17;6.80;;;;;;;;;;5117879;27;21020;-81
2024/02/06 02:33:24;;;;;;;9.03;5.03;;;;;;;;;;5136272;27;20414;-81
2024/02/06 02:35:51;;;;;;;9.23;5.00;;;;;;;;;;5136412;27;20416;-81
2024/02/06 02:38:19;;;;;;;7.80;5.40;;;;;;;;;;5136338;27;20421;-82
2024/02/06 02:40:45;;;;;;;8.83;4.87;;;;;;;;;;5136307;27;20779;-81
2024/02/06 02:43:10;;;;;;;9.10;5.57;;;;;;;;;;5135958;27;20401;-82
2024/02/06 02:45:36;;;;;;;12.80;5.63;;;;;;;;;;5136164;27;20891;-81
2024/02/06 02:48:02;;;;;;;7.00;4.53;;;;;;;;;;5136054;27;20168;-82
2024/02/06 02:50:28;;;;;;;7.50;5.00;;;;;;;;;;5136031;27;20460;-81
2024/02/06 02:52:54;;;;;;;10.77;4.47;;;;;;;;;;5136085;27;20817;-81
2024/02/06 02:55:20;;;;;;;10.03;4.10;;;;;;;;;;5135972;27;20765;-82
2024/02/06 02:57:46;;;;;;;7.87;3.83;;;;;;;;;;5117106;27;20912;-82
2024/02/06 03:00:15;;;;;;;7.93;3.90;;;;;;;;;;5135932;27;20175;-81
2024/02/06 03:02:41;;;;;;;9.70;5.10;;;;;;;;;;5135661;27;20410;-81
2024/02/06 03:05:08;;;;;;;12.40;5.07;;;;;;;;;;5135765;27;20822;-82
2024/02/06 03:07:34;;;;;;;8.70;4.63;;;;;;;;;;5135713;27;20410;-82
2024/02/06 03:10:00;;;;;;;10.17;5.70;;;;;;;;;;5134681;27;20472;-81
2024/02/06 03:12:31;;;;;;;10.70;4.53;;;;;;;;;;5135568;27;20424;-81
2024/02/06 03:14:59;;;;;;;11.73;5.00;;;;;;;;;;5135620;27;20411;-81
2024/02/06 03:17:25;;;;;;;8.83;4.93;;;;;;;;;;5135835;27;20909;-80
2024/02/06 03:19:51;;;;;;;9.13;4.97;;;;;;;;;;5135497;27;20467;-82
2024/02/06 03:22:18;;;;;;;6.50;4.37;;;;;;;;;;5135357;27;20410;-80
2024/02/06 03:24:44;;;;;;;9.20;3.90;;;;;;;;;;5135418;27;20431;-81
2024/02/06 03:27:09;;;;;;;14.67;5.80;;;;;;;;;;5135232;27;20765;-82
2024/02/06 03:29:36;;;;;;;7.10;4.10;;;;;;;;;;5134731;27;20228;-81
2024/02/06 03:32:03;;;;;;;7.00;4.20;;;;;;;;;;5135326;27;20178;-82
2024/02/06 03:34:29;;;;;;;9.70;6.57;;;;;;;;;;5135076;27;20420;-82
2024/02/06 03:36:55;;;;;;;7.67;4.73;;;;;;;;;;5135174;27;20484;-81
2024/02/06 03:39:21;;;;;;;10.37;4.70;;;;;;;;;;5135013;27;20492;-82
2024/02/06 03:41:47;;;;;;;9.47;4.93;;;;;;;;;;5134967;27;20409;-83
2024/02/06 03:44:14;;;;;;;16.00;5.87;;;;;;;;;;5134690;27;20442;-82
2024/02/06 03:46:40;;;;;;;11.50;5.07;;;;;;;;;;5134756;27;20405;-82
2024/02/06 03:49:07;;;;;;;6.50;4.27;;;;;;;;;;5134871;27;20480;-82
2024/02/06 03:51:33;;;;;;;10.90;4.80;;;;;;;;;;5134967;27;20409;-82
2024/02/06 03:53:59;;;;;;;11.20;4.70;;;;;;;;;;5134707;27;20985;-81
2024/02/06 03:56:24;;;;;;;7.70;4.10;;;;;;;;;;5116639;27;20452;-81
2024/02/06 03:58:50;;;;;;;8.87;3.80;;;;;;;;;;5134379;27;20263;-82
2024/02/06 04:01:16;;;;;;;11.80;4.40;;;;;;;;;;5134643;27;20439;-82
2024/02/06 04:03:43;;;;;;;9.63;4.47;;;;;;;;;;5134675;27;20783;-81
2024/02/06 04:06:12;;;;;;;8.40;4.60;;;;;;;;;;5134568;27;20548;-80
2024/02/06 04:08:38;;;;;;;8.80;5.13;;;;;;;;;;5134452;27;20441;-82
2024/02/06 04:11:05;;;;;;;7.97;4.90;;;;;;;;;;5134470;27;20909;-82
2024/02/06 04:13:31;;;;;;;11.00;4.57;;;;;;;;;;5134148;27;20496;-81
2024/02/06 04:15:57;;;;;;;13.10;5.00;;;;;;;;;;5134422;27;20459;-79
2024/02/06 04:18:27;;;;;;;9.13;4.07;;;;;;;;;;5134435;27;20169;-82
2024/02/06 04:20:53;;;;;;;7.67;4.70;;;;;;;;;;5134209;27;20176;-82
2024/02/06 04:23:19;;;;;;;11.53;5.90;;;;;;;;;;5134271;27;20989;-80
2024/02/06 04:25:44;;;;;;;7.83;4.53;;;;;;;;;;5134250;27;20429;-80
2024/02/06 04:28:10;;;;;;;10.60;4.70;;;;;;;;;;5133915;27;20433;-81
2024/02/06 04:30:42;;;;;;;10.20;5.00;;;;;;;;;;5133972;27;20448;-81
2024/02/06 04:33:08;;;;;;;9.07;4.40;;;;;;;;;;5134207;27;20399;-80
2024/02/06 04:35:34;;;;;;;9.80;6.10;;;;;;;;;;5134073;27;20414;-82
2024/02/06 04:38:00;;;;;;;11.10;5.30;;;;;;;;;;5133985;27;20407;-81
2024/02/06 04:40:26;;;;;;;8.40;4.37;;;;;;;;;;5134048;27;20401;-80
2024/02/06 04:42:52;;;;;;;7.60;5.07;;;;;;;;;;5133695;27;20176;-80
2024/02/06 04:45:18;;;;;;;8.57;4.73;;;;;;;;;;5134021;27;20554;-81
2024/02/06 04:47:44;;;;;;;8.87;4.47;;;;;;;;;;5115667;28;20544;-81
2024/02/06 04:50:10;;;;;;;7.00;4.33;;;;;;;;;;5133824;27;20476;-81
2024/02/06 04:52:36;;;;;;;9.77;4.73;;;;;;;;;;5133923;28;20174;-82
2024/02/06 04:55:04;;;;;;;13.87;4.80;;;;;;;;;;5133866;28;20416;-81
2024/02/06 04:57:30;;;;;;;11.60;6.10;;;;;;;;;;5133536;28;20397;-82
2024/02/06 04:59:57;;;;;;;12.53;6.50;;;;;;;;;;5133799;28;20413;-82
2024/02/06 05:02:23;;;;;;;7.80;5.07;;;;;;;;;;5133756;28;20410;-82
2024/02/06 05:04:58;;;;;;;10.00;5.40;;;;;;;;;;5133660;28;20896;-82
2024/02/06 05:07:28;;;;;;;10.30;5.80;;;;;;;;;;5115485;28;20478;-82
2024/02/06 05:09:54;;;;;;;12.17;6.37;;;;;;;;;;5133824;28;20472;-82
2024/02/06 05:12:20;;;;;;;11.30;6.13;;;;;;;;;;5133321;28;20412;-82
2024/02/06 05:14:46;;;;;;;8.10;6.17;;;;;;;;;;5133736;28;20408;-81
2024/02/06 05:17:12;;;;;;;11.87;5.80;;;;;;;;;;5133683;28;20625;-81
2024/02/06 05:19:41;;;;;;;10.90;5.17;;;;;;;;;;5133542;28;20943;-82
2024/02/06 05:22:11;;;;;;;7.67;5.50;;;;;;;;;;5133678;28;20759;-81
2024/02/06 05:24:37;;;;;;;8.97;4.70;;;;;;;;;;5133672;28;20403;-83
2024/02/06 05:27:03;;;;;;;10.60;5.50;;;;;;;;;;5133669;28;20893;-80
2024/02/06 05:29:30;;;;;;;9.77;6.30;;;;;;;;;;5133068;28;20471;-82
2024/02/06 05:31:56;;;;;;;13.33;5.60;;;;;;;;;;5134712;27;20397;-80
2024/02/06 05:34:22;;;;;;;8.33;5.37;;;;;;;;;;5119085;27;20416;-80
2024/02/06 05:36:48;;;;;;;8.97;6.10;;;;;;;;;;5137495;27;20420;-80
2024/02/06 05:39:14;;;;;;;12.33;6.67;;;;;;;;;;5137314;27;20773;-80
2024/02/06 05:41:40;;;;;;;11.47;7.33;;;;;;;;;;5137280;27;20416;-81
2024/02/06 05:44:06;;;;;;;18.40;8.07;;;;;;;;;;5137043;27;20483;-83
2024/02/06 05:46:31;;;;;;;12.87;8.10;;;;;;;;;;5116628;27;20482;-81
2024/02/06 05:48:57;;;;;;;10.80;6.50;;;;;;;;;;5116683;28;20557;-81
2024/02/06 05:51:24;;;;;;;9.83;7.20;;;;;;;;;;5116558;28;20407;-80
2024/02/06 05:53:52;;;;;;;10.43;6.90;;;;;;;;;;5116654;28;20423;-80
2024/02/06 05:56:18;;;;;;;11.20;6.53;;;;;;;;;;5116535;28;20410;-80
2024/02/06 05:58:44;;;;;;;10.33;7.40;;;;;;;;;;5116119;28;20405;-80
2024/02/06 06:01:10;;;;;;;9.77;5.97;;;;;;;;;;5097707;28;20413;-82
2024/02/06 06:03:36;;;;;;;13.70;6.80;;;;;;;;;;5116315;28;20887;-80
2024/02/06 06:06:02;;;;;;;7.67;5.20;;;;;;;;;;5116252;28;20418;-81
2024/02/06 06:08:28;;;;;;;11.53;6.70;;;;;;;;;;5116279;28;20526;-82
2024/02/06 06:10:56;;;;;;;8.60;6.57;;;;;;;;;;5116331;28;20525;-82
2024/02/06 06:13:22;;;;;;;12.43;6.73;;;;;;;;;;5115884;28;20406;-81
2024/02/06 06:15:47;;;;;;;10.63;7.27;;;;;;;;;;5115889;28;20506;-82
2024/02/06 06:18:13;;;;;;;11.97;6.93;;;;;;;;;;5113149;28;20851;-81
2024/02/06 06:20:39;;;;;;;10.60;6.07;;;;;;;;;;5111573;28;20507;-81
2024/02/06 06:23:05;;;;;;;14.63;6.37;;;;;;;;;;5111072;28;20181;-80
2024/02/06 06:25:31;;;;;;;14.57;6.73;;;;;;;;;;5097671;28;20207;-84
2024/02/06 06:27:57;;;;;;;10.77;6.20;;;;;;;;;;5094615;28;20199;-83
2024/02/06 06:30:23;;;;;;;14.67;6.60;;;;;;;;;;5093826;28;20484;-83
2024/02/06 06:32:49;;;;;;;10.70;7.60;;;;;;;;;;5095399;28;20411;-81
2024/02/06 06:35:15;;;;;;;11.57;6.67;;;;;;;;;;5095383;28;20912;-79
2024/02/06 06:37:41;;;;;;;14.97;7.77;;;;;;;;;;5095306;28;20494;-80
2024/02/06 06:40:08;;;;;;;13.50;6.93;;;;;;;;;;5095450;28;20416;-79
2024/02/06 06:42:35;;;;;;;11.10;6.03;;;;;;;;;;5094938;28;20903;-82
2024/02/06 06:45:13;;;;;;;11.37;5.50;;;;;;;;;;5095568;28;20406;-82
2024/02/06 06:47:39;;;;;;;12.37;6.90;;;;;;;;;;5103096;28;20403;-80
2024/02/06 06:50:06;;;;;;;17.40;8.67;;;;;;;;;;5115409;28;20488;-82
2024/02/06 06:52:31;;;;;;;9.30;5.80;;;;;;;;;;5115547;28;20398;-81
2024/02/06 06:54:57;;;;;;;11.40;6.63;;;;;;;;;;5096985;28;20510;-82
2024/02/06 06:57:23;;;;;;;10.67;5.83;;;;;;;;;;5114991;28;20191;-82
2024/02/06 06:59:49;;;;;;;11.10;7.43;;;;;;;;;;5115365;28;20926;-83
2024/02/06 07:02:17;;;;;;;9.93;5.50;;;;;;;;;;5115070;28;20498;-82
2024/02/06 07:04:43;;;;;;;11.43;6.20;;;;;;;;;;5115174;28;20503;-81
2024/02/06 07:07:12;;;;;;;9.00;5.70;;;;;;;;;;5097147;28;20970;-81
2024/02/06 07:09:38;;;;;;;14.53;7.03;;;;;;;;;;5114050;28;20480;-81
2024/02/06 07:12:04;;;;;;;17.93;7.80;;;;;;;;;;5114573;28;20779;-82
2024/02/06 07:14:30;;;;;;;12.87;6.60;;;;;;;;;;5114742;28;20410;-80
2024/02/06 07:16:56;;;;;;;16.70;7.80;;;;;;;;;;5096311;28;20416;-81
2024/02/06 07:19:23;;;;;;;13.77;7.90;;;;;;;;;;5096628;28;20422;-81
2024/02/06 07:21:55;;;;;;;17.17;8.37;;;;;;;;;;5114786;28;20410;-82
2024/02/06 07:24:21;;;;;;;9.13;6.90;;;;;;;;;;5114840;28;20976;-81
2024/02/06 07:26:47;;;;;;;15.67;7.10;;;;;;;;;;5114616;28;20444;-82
2024/02/06 07:29:13;;;;;;;14.73;8.10;;;;;;;;;;5114222;28;20564;-81
2024/02/06 07:31:39;;;;;;;12.47;7.93;;;;;;;;;;5113812;28;20405;-81
2024/02/06 07:34:08;;;;;;;11.03;7.27;;;;;;;;;;5113769;28;20629;-81
2024/02/06 07:36:34;;;;;;;14.10;8.80;;;;;;;;;;5113651;28;20413;-80
2024/02/06 07:39:00;;;;;;;10.97;6.53;;;;;;;;;;5113736;28;20402;-82
2024/02/06 07:41:26;;;;;;;10.83;6.83;;;;;;;;;;5114029;28;20172;-82
2024/02/06 07:43:52;;;;;;;13.53;7.07;;;;;;;;;;5113614;28;20460;-80
2024/02/06 07:46:18;;;;;;;15.30;5.97;;;;;;;;;;5114129;28;20406;-82
2024/02/06 07:48:44;;;;;;;11.83;7.00;;;;;;;;;;5113591;28;20488;-80
2024/02/06 07:51:11;;;;;;;10.97;5.00;;;;;;;;;;5113465;28;20451;-81
2024/02/06 07:53:37;;;;;;;9.40;5.67;;;;;;;;;;5113456;28;20413;-81
2024/02/06 07:56:06;;;;;;;8.43;5.30;;;;;;;;;;5094615;28;20426;-81
2024/02/06 07:58:33;;;;;;;7.03;4.03;;;;;;;;;;5112659;28;20419;-81
2024/02/06 08:00:59;;;;;;;7.80;5.17;;;;;;;;;;5113095;28;20415;-80
2024/02/06 08:03:25;;;;;;;8.67;3.90;;;;;;;;;;5094943;28;20415;-82
2024/02/06 08:05:51;;;;;;;8.97;4.67;;;;;;;;;;5113399;28;20422;-82
2024/02/06 08:08:17;;;;;;;8.73;3.83;;;;;;;;;;5113048;28;20411;-83
2024/02/06 08:10:43;;;;;;;5.97;3.53;;;;;;;;;;5094966;28;20571;-83
2024/02/06 08:13:11;;;;;;;6.00;3.60;;;;;;;;;;5112802;28;20753;-81
2024/02/06 08:15:38;;;;;;;8.93;4.17;;;;;;;;;;5113031;28;20419;-79
2024/02/06 08:18:04;;;;;;;6.17;3.47;;;;;;;;;;5112953;28;20753;-80
2024/02/06 08:20:30;;;;;;;5.10;2.93;;;;;;;;;;5113116;28;20414;-80
2024/02/06 08:22:56;;;;;;;7.40;2.80;;;;;;;;;;5112995;28;20430;-83
2024/02/06 08:25:22;;;;;;;6.47;3.10;;;;;;;;;;5112951;28;20422;-80
2024/02/06 08:27:48;;;;;;;7.00;3.40;;;;;;;;;;5112599;28;20454;-83
2024/02/06 08:30:14;;;;;;;4.30;2.60;;;;;;;;;;5067651;28;1002459;-83
2024/02/06 08:32:40;;;;;;;5.80;2.43;;;;;;;;;;5093350;28;20176;-81
2024/02/06 08:35:06;;;;;;;5.87;2.77;;;;;;;;;;5093194;28;20944;-83
2024/02/06 08:37:32;;;;;;;7.63;3.07;;;;;;;;;;5093165;28;20407;-78
2024/02/06 08:40:00;;;;;;;8.50;3.67;;;;;;;;;;5091982;28;20438;-82
2024/02/06 08:42:26;;;;;;;6.10;3.30;;;;;;;;;;5092692;28;20954;-82
2024/02/06 08:44:52;;;;;;;7.70;4.50;;;;;;;;;;5093121;28;20792;-82
2024/02/06 08:47:18;;;;;;;7.10;4.10;;;;;;;;;;5093112;28;20495;-81
2024/02/06 08:49:44;;;;;;;4.47;3.20;;;;;;;;;;5091756;28;20482;-82
2024/02/06 08:52:10;;;;;;;5.63;4.10;;;;;;;;;;5093131;28;20406;-81
2024/02/06 08:54:36;;;;;;;6.13;4.17;;;;;;;;;;5092998;28;20411;-83
2024/02/06 08:57:02;;;;;;;4.60;3.73;;;;;;;;;;5091465;28;20592;-82
2024/02/06 08:59:28;;;;;;;5.07;3.80;;;;;;;;;;5093049;28;20168;-80
2024/02/06 09:01:54;;;;;;;6.80;3.60;;;;;;;;;;5093082;28;20403;-81
2024/02/06 09:04:20;;;;;;;7.60;3.97;;;;;;;;;;5092903;28;20448;-81
2024/02/06 09:06:46;;;;;;;10.80;3.50;;;;;;;;;;5093441;28;20427;-84
2024/02/06 09:09:12;;;;;;;6.57;3.40;;;;;;;;;;5095740;28;20469;-80
2024/02/06 09:11:40;;;;;;;13.20;4.70;;;;;;;;;;5096788;28;20176;-80
2024/02/06 09:14:05;;;;;;;8.07;3.43;;;;;;;;;;5096928;28;20558;-81
2024/02/06 09:16:32;;;;;;;8.20;4.37;;;;;;;;;;5097029;28;20495;-82
2024/02/06 09:18:57;;;;;;;12.43;4.67;;;;;;;;;;5096974;28;20406;-82
2024/02/06 09:21:23;;;;;;;9.80;5.00;;;;;;;;;;5096906;28;20410;-81
2024/02/06 09:23:49;;;;;;;9.03;3.40;;;;;;;;;;5095623;28;20785;-82
2024/02/06 09:26:16;;;;;;;12.77;3.57;;;;;;;;;;5096699;28;20410;-82
2024/02/06 09:28:45;;;;;;;9.53;5.00;;;;;;;;;;5095012;28;20462;-80
2024/02/06 09:31:14;;;;;;;9.60;4.40;;;;;;;;;;5133057;27;20465;-80
2024/02/06 09:33:40;;;;;;;6.43;3.17;;;;;;;;;;5137864;27;20417;-81
2024/02/06 09:36:07;;;;;;;8.70;3.70;;;;;;;;;;5119663;27;20516;-82
2024/02/06 09:38:33;;;;;;;5.97;3.73;;;;;;;;;;5119370;27;20918;-81
2024/02/06 09:41:00;;;;;;;7.60;3.73;;;;;;;;;;5137581;27;20419;-83
2024/02/06 09:43:26;;;;;;;6.60;3.13;;;;;;;;;;5137160;27;20401;-84
2024/02/06 09:45:52;;;;;;;8.27;2.90;;;;;;;;;;5137579;27;20406;-83
2024/02/06 09:48:18;;;;;;;10.40;3.03;;;;;;;;;;5137254;27;20459;-82
2024/02/06 09:50:44;;;;;;;6.73;4.23;;;;;;;;;;5137429;27;20424;-81
2024/02/06 09:53:11;;;;;;;10.90;3.57;;;;;;;;;;5118866;27;20473;-85
2024/02/06 09:55:38;;;;;;;8.50;4.37;;;;;;;;;;5137475;27;20417;-82
2024/02/06 09:58:04;;;;;;;7.30;4.33;;;;;;;;;;5136962;27;20414;-82
2024/02/06 10:00:30;;;;;;;5.73;3.80;;;;;;;;;;5137317;27;20854;-80
2024/02/06 10:02:57;;;;;;;5.60;3.40;;;;;;;;;;5137196;27;20426;-82
2024/02/06 10:05:26;;;;;;;4.50;3.03;;;;;;;;;;5137300;27;20838;-81
2024/02/06 10:07:53;;;;;;;8.37;3.00;;;;;;;;;;5137244;27;20410;-80
2024/02/06 10:10:20;;;;;;;9.73;3.60;;;;;;;;;;5137071;27;20564;-81
2024/02/06 10:12:46;;;;;;;8.17;2.87;;;;;;;;;;5136637;27;20411;-82
2024/02/06 10:15:21;;;;;;;8.03;4.07;;;;;;;;;;5137271;27;20780;-81
2024/02/06 10:17:47;;;;;;;8.40;3.50;;;;;;;;;;5136641;27;20488;-81
2024/02/06 10:20:13;;;;;;;6.80;3.30;;;;;;;;;;5136685;27;20443;-81
2024/02/06 10:22:40;;;;;;;8.07;4.40;;;;;;;;;;5136505;27;20397;-82
2024/02/06 10:25:09;;;;;;;8.20;3.47;;;;;;;;;;5118138;27;20423;-83
2024/02/06 10:27:35;;;;;;;7.57;3.43;;;;;;;;;;5136097;27;20481;-81
2024/02/06 10:30:02;;;;;;;9.00;3.50;;;;;;;;;;5117760;27;20572;-81
2024/02/06 10:32:31;;;;;;;7.77;2.83;;;;;;;;;;5117990;27;20445;-83
2024/02/06 10:35:02;;;;;;;6.27;3.03;;;;;;;;;;5117942;27;20428;-82
2024/02/06 10:37:28;;;;;;;7.73;3.90;;;;;;;;;;5136342;27;20401;-84
2024/02/06 10:39:54;;;;;;;6.00;3.33;;;;;;;;;;5136096;27;20856;-81
2024/02/06 10:42:20;;;;;;;5.43;2.90;;;;;;;;;;5117236;27;20439;-86
2024/02/06 10:44:46;;;;;;;8.57;3.23;;;;;;;;;;5135934;27;20442;-81
2024/02/06 10:47:15;;;;;;;6.60;3.73;;;;;;;;;;5117397;27;20420;-81
2024/02/06 10:49:41;;;;;;;7.90;3.07;;;;;;;;;;5135826;27;20467;-81
2024/02/06 10:52:08;;;;;;;6.67;3.33;;;;;;;;;;5135921;27;20405;-82
2024/02/06 10:54:35;;;;;;;8.67;4.27;;;;;;;;;;5117447;27;20428;-85
2024/02/06 10:57:08;;;;;;;11.73;2.77;;;;;;;;;;5135514;27;20401;-85
2024/02/06 10:59:46;;;;;;;4.03;2.20;;;;;;;;;;5135789;27;20424;-85
2024/02/06 11:02:22;;;;;;;6.73;3.30;;;;;;;;;;5135785;27;20405;-81
2024/02/06 11:04:50;;;;;;;8.10;2.83;;;;;;;;;;5135787;27;20406;-82
2024/02/06 11:07:17;;;;;;;4.40;2.57;;;;;;;;;;5135598;27;20901;-82
2024/02/06 11:09:44;;;;;;;11.23;3.23;;;;;;;;;;5135319;27;20471;-84
2024/02/06 11:12:10;;;;;;;9.33;2.87;;;;;;;;;;5116536;27;20781;-82
2024/02/06 11:14:37;;;;;;;5.27;2.33;;;;;;;;;;5118092;27;20425;-83
2024/02/06 11:17:04;;;;;;;8.60;3.30;;;;;;;;;;5114883;28;20893;-80
2024/02/06 11:19:35;;;;;;;6.57;3.50;;;;;;;;;;5114672;28;20813;-86
2024/02/06 11:22:05;;;;;;;6.57;2.40;;;;;;;;;;5114818;28;20982;-86
2024/02/06 11:24:31;;;;;;;7.80;3.10;;;;;;;;;;5115036;28;20525;-83
2024/02/06 11:26:58;;;;;;;7.63;4.30;;;;;;;;;;5114335;28;20401;-82
2024/02/06 11:29:24;;;;;;;9.80;3.97;;;;;;;;;;5113532;28;20474;-83
2024/02/06 11:31:50;;;;;;;8.23;4.20;;;;;;;;;;5114663;28;20456;-83
2024/02/06 11:34:20;;;;;;;4.87;2.60;;;;;;;;;;5114480;28;21090;-83
2024/02/06 11:36:46;;;;;;;5.73;1.90;;;;;;;;;;5114392;28;20406;-81
2024/02/06 11:39:13;;;;;;;6.63;2.90;;;;;;;;;;5110611;28;20500;-78
2024/02/06 11:41:40;;;;;;;11.03;3.73;;;;;;;;;;5113497;28;20906;-80
2024/02/06 11:44:10;;;;;;;8.00;3.23;;;;;;;;;;5114062;28;20408;-79
2024/02/06 11:46:48;;;;;;;7.97;3.40;;;;;;;;;;5096246;28;20409;-83
2024/02/06 11:49:21;;;;;;;8.83;2.60;;;;;;;;;;5114170;28;20456;-81
2024/02/06 11:51:53;;;;;;;9.43;2.60;;;;;;;;;;5114444;28;20397;-81
2024/02/06 11:54:19;;;;;;;7.03;3.30;;;;;;;;;;5114169;28;20994;-80
2024/02/06 11:56:45;;;;;;;8.53;2.37;;;;;;;;;;5113810;28;20490;-82
2024/02/06 11:59:12;;;;;;;5.33;2.43;;;;;;;;;;5114109;28;20438;-80
2024/02/06 12:01:39;;;;;;;12.43;2.47;;;;;;;;;;5113515;28;20472;-79
2024/02/06 12:04:05;;;;;;;7.03;2.10;;;;;;;;;;5113857;28;20449;-82
2024/02/06 12:06:32;;;;;;;11.20;2.43;;;;;;;;;;5113507;28;20929;-81
2024/02/06 12:09:05;;;;;;;5.30;1.83;;;;;;;;;;5095484;28;20967;-78
2024/02/06 12:11:35;;;;;;;9.50;2.27;;;;;;;;;;5113586;28;20424;-80
2024/02/06 12:14:01;;;;;;;9.13;2.43;;;;;;;;;;5113622;28;20859;-83
2024/02/06 12:16:27;;;;;;;7.20;2.60;;;;;;;;;;5113804;28;20495;-80
2024/02/06 12:18:53;;;;;;;5.83;1.80;;;;;;;;;;5094963;28;20483;-78
2024/02/06 12:21:20;;;;;;;4.10;1.80;;;;;;;;;;5095074;28;20958;-79
2024/02/06 12:23:46;;;;;;;6.53;1.40;;;;;;;;;;5112817;28;20471;-82
2024/02/06 12:26:21;;;;;;;5.77;1.20;;;;;;;;;;5113356;28;20419;-82
2024/02/06 12:28:47;;;;;;;9.90;2.10;;;;;;;;;;5095216;28;20464;-82
2024/02/06 12:31:13;;;;;;;4.87;1.43;;;;;;;;;;5113381;28;20536;-79
2024/02/06 12:33:40;;;;;;;8.23;2.50;;;;;;;;;;5113700;28;20399;-80
2024/02/06 12:36:06;;;;;;;5.37;2.33;;;;;;;;;;5113254;28;20931;-80
2024/02/06 12:38:33;;;;;;;6.70;1.90;;;;;;;;;;5113318;28;20412;-84
2024/02/06 12:41:03;;;;;;;9.53;2.30;;;;;;;;;;5094830;28;20457;-83
2024/02/06 12:43:29;;;;;;;7.90;2.00;;;;;;;;;;5095132;28;20429;-82
2024/02/06 12:45:56;;;;;;;8.70;2.20;;;;;;;;;;5113409;28;20460;-83
2024/02/06 12:48:22;;;;;;;4.50;1.67;;;;;;;;;;5113146;28;20407;-84
2024/02/06 12:50:48;;;;;;;5.10;1.60;;;;;;;;;;5113102;28;20467;-81
2024/02/06 12:53:25;;;;;;;5.27;1.43;;;;;;;;;;5113564;28;20518;-84
2024/02/06 12:55:51;;;;;;;9.10;1.50;;;;;;;;;;5113357;28;20458;-78
2024/02/06 12:58:19;;;;;;;6.70;1.87;;;;;;;;;;5112911;28;20968;-86
2024/02/06 13:00:52;;;;;;;6.07;1.43;;;;;;;;;;5113301;28;20460;-81
2024/02/06 13:03:18;;;;;;;4.30;1.20;;;;;;;;;;5113234;28;20782;-81
2024/02/06 13:05:45;;;;;;;3.20;1.37;;;;;;;;;;5113365;28;20411;-83
2024/02/06 13:08:15;;;;;;;7.60;1.97;;;;;;;;;;5113081;28;20251;-84
2024/02/06 13:10:41;;;;;;;3.30;1.43;;;;;;;;;;5114583;28;20471;-92
2024/02/06 13:13:07;;;;;;;5.93;1.00;;;;;;;;;;5115175;28;20396;-91
2024/02/06 13:15:34;;;;;;;7.27;2.37;;;;;;;;;;5115069;28;20413;-86
2024/02/06 13:18:01;;;;;;;3.07;1.17;;;;;;;;;;5096175;28;20993;-87
2024/02/06 13:20:30;;;;;;;4.40;1.20;;;;;;;;;;5113755;28;20486;-83
2024/02/06 13:22:59;;;;;;;8.20;1.50;;;;;;;;;;5113316;28;20443;-84
2024/02/06 13:25:25;;;;;;;4.27;1.60;;;;;;;;;;5113178;28;20396;-80
2024/02/06 13:27:51;;;;;;;8.43;2.00;;;;;;;;;;5113116;28;20855;-81
2024/02/06 13:30:17;;;;;;;5.30;1.60;;;;;;;;;;5100413;28;20970;-81
2024/02/06 13:32:43;;;;;;;5.70;2.40;;;;;;;;;;5087929;28;20970;-82
2024/02/06 13:35:09;;;;;;;7.63;1.97;;;;;;;;;;5092955;28;20945;-80
2024/02/06 13:37:35;;;;;;;4.10;1.27;;;;;;;;;;5092912;28;20404;-79
2024/02/06 13:40:03;;;;;;;5.87;1.50;;;;;;;;;;5073716;28;20898;-79
2024/02/06 13:42:29;;;;;;;7.87;1.53;;;;;;;;;;5091985;28;20474;-80
2024/02/06 13:44:55;;;;;;;5.37;0.97;;;;;;;;;;5092816;28;20519;-81
2024/02/06 13:47:21;;;;;;;6.87;2.93;;;;;;;;;;5074286;28;20409;-81
2024/02/06 13:49:47;;;;;;;5.20;2.17;;;;;;;;;;5074701;28;20474;-79
2024/02/06 13:52:16;;;;;;;8.33;1.77;;;;;;;;;;5074686;28;20418;-81
2024/02/06 13:54:42;;;;;;;5.90;1.90;;;;;;;;;;5096306;28;20508;-79
2024/02/06 13:57:08;;;;;;;4.40;1.97;;;;;;;;;;5096358;28;20445;-80
2024/02/06 13:59:34;;;;;;;7.27;2.90;;;;;;;;;;5096457;28;20456;-79
2024/02/06 14:02:00;;;;;;;6.60;1.97;;;;;;;;;;5096387;28;20818;-80
2024/02/06 14:04:27;;;;;;;4.90;2.43;;;;;;;;;;5096488;28;20424;-79
2024/02/06 14:06:53;;;;;;;10.03;3.03;;;;;;;;;;5078079;28;20442;-80
2024/02/06 14:09:19;;;;;;;10.07;1.70;;;;;;;;;;5096144;28;20489;-80
2024/02/06 14:11:45;;;;;;;6.77;1.60;;;;;;;;;;5096235;28;20491;-79
2024/02/06 14:14:11;;;;;;;5.40;1.80;;;;;;;;;;5096287;28;20415;-81
2024/02/06 14:16:37;;;;;;;5.73;1.30;;;;;;;;;;5096236;28;20397;-81
2024/02/06 14:19:06;;;;;;;4.90;1.87;;;;;;;;;;5096188;28;20407;-79
2024/02/06 14:21:33;;;;;;;7.73;2.90;;;;;;;;;;5078030;28;20428;-80
2024/02/06 14:23:59;;;;;;;9.20;2.37;;;;;;;;;;5077901;28;20424;-79
2024/02/06 14:26:26;;;;;;;6.73;1.80;;;;;;;;;;5095571;28;20424;-79
2024/02/06 14:28:52;;;;;;;9.53;2.57;;;;;;;;;;5096053;28;20447;-80
2024/02/06 14:31:18;;;;;;;8.03;2.93;;;;;;;;;;5095783;28;20510;-79
2024/02/06 14:33:44;;;;;;;11.00;2.87;;;;;;;;;;5096062;28;20403;-80
2024/02/06 14:36:10;;;;;;;6.37;3.20;;;;;;;;;;5096084;28;20496;-79